Time;durP1;ratioP1;P1;durP2;ratioP2;P2;SDS_P1;SDS_P2;PMS_P1;PMS_P2;Temp;Humidity;BMP_temperature;BMP_pressure;BME280_temperature;BME280_humidity;BME280_pressure;Samples;Min_cycle;Max_cycle;Signal;HPM_P1;HPM_P2
2023/12/14 00:01:14;;;;;;;11.30;6.82;;;4.90;97.90;;;;;;5077434;28;20412;-70
2023/12/14 00:03:41;;;;;;;11.23;6.38;;;4.80;97.80;;;;;;5085755;28;20413;-70
2023/12/14 00:06:15;;;;;;;12.55;7.35;;;4.80;97.90;;;;;;5096120;28;20770;-70
2023/12/14 00:08:41;;;;;;;11.98;6.60;;;4.80;97.80;;;;;;5104068;28;20424;-71
2023/12/14 00:11:08;;;;;;;11.73;6.63;;;4.90;97.80;;;;;;5105131;28;20973;-70
2023/12/14 00:13:34;;;;;;;12.57;6.95;;;4.80;97.60;;;;;;5104255;28;20426;-70
2023/12/14 00:16:01;;;;;;;12.63;7.00;;;4.80;97.70;;;;;;5104345;28;20409;-71
2023/12/14 00:18:26;;;;;;;11.35;7.25;;;4.80;97.80;;;;;;5102640;28;20992;-71
2023/12/14 00:20:53;;;;;;;12.60;6.88;;;4.80;97.90;;;;;;5104916;28;20496;-70
2023/12/14 00:23:19;;;;;;;11.80;7.35;;;4.90;97.80;;;;;;5102692;28;20419;-70
2023/12/14 00:25:45;;;;;;;14.27;7.15;;;4.80;97.80;;;;;;5105825;28;20396;-70
2023/12/14 00:28:11;;;;;;;12.38;7.20;;;4.80;97.90;;;;;;5102614;28;20794;-71
2023/12/14 00:30:36;;;;;;;14.50;7.90;;;4.80;98.30;;;;;;5095147;28;20406;-70
2023/12/14 00:33:02;;;;;;;12.93;7.60;;;4.80;98.10;;;;;;5102645;28;20740;-71
2023/12/14 00:35:27;;;;;;;13.07;7.50;;;4.80;98.20;;;;;;5093293;28;20406;-70
2023/12/14 00:37:53;;;;;;;13.87;7.80;;;4.90;98.40;;;;;;5102384;28;20408;-71
2023/12/14 00:40:19;;;;;;;13.85;7.78;;;4.80;98.30;;;;;;5096309;28;20945;-70
2023/12/14 00:42:44;;;;;;;12.93;7.53;;;4.90;98.20;;;;;;5103715;28;20479;-70
2023/12/14 00:45:10;;;;;;;14.40;7.53;;;4.80;98.30;;;;;;5108336;28;20441;-70
2023/12/14 00:47:35;;;;;;;16.30;7.50;;;4.80;98.30;;;;;;5104447;28;20937;-70
2023/12/14 00:50:02;;;;;;;13.70;7.50;;;4.80;98.30;;;;;;5096921;28;20439;-70
2023/12/14 00:52:27;;;;;;;12.57;7.63;;;4.80;98.30;;;;;;5103191;28;20800;-71
2023/12/14 00:54:53;;;;;;;15.37;7.67;;;4.80;98.30;;;;;;5106081;28;20479;-70
2023/12/14 00:57:19;;;;;;;15.38;7.57;;;4.80;98.30;;;;;;5104729;28;20396;-70
2023/12/14 00:59:44;;;;;;;15.33;8.00;;;4.80;98.30;;;;;;5106928;28;20408;-70
2023/12/14 01:02:10;;;;;;;13.10;7.23;;;4.80;98.00;;;;;;5089711;28;20409;-70
2023/12/14 01:04:35;;;;;;;14.20;7.50;;;4.80;98.30;;;;;;5100783;28;20511;-70
2023/12/14 01:07:01;;;;;;;13.57;8.23;;;4.80;98.30;;;;;;5107025;28;20412;-71
2023/12/14 01:09:27;;;;;;;13.43;7.72;;;4.80;98.30;;;;;;5108372;28;20397;-70
2023/12/14 01:11:52;;;;;;;13.40;7.97;;;4.80;98.10;;;;;;5105891;28;20766;-71
2023/12/14 01:14:18;;;;;;;14.03;7.70;;;4.80;98.00;;;;;;5107734;28;20456;-70
2023/12/14 01:16:43;;;;;;;13.13;7.32;;;4.80;98.00;;;;;;5106025;28;20766;-70
2023/12/14 01:19:09;;;;;;;12.87;7.53;;;4.80;97.90;;;;;;5089716;28;20405;-70
2023/12/14 01:21:34;;;;;;;13.10;7.90;;;4.80;98.00;;;;;;5101367;28;20421;-70
2023/12/14 01:24:00;;;;;;;15.80;7.60;;;4.80;98.00;;;;;;5099896;28;20955;-70
2023/12/14 01:26:27;;;;;;;13.83;7.80;;;4.80;98.10;;;;;;5101906;28;20406;-70
2023/12/14 01:28:53;;;;;;;13.60;7.50;;;4.80;98.00;;;;;;5098279;28;20552;-70
2023/12/14 01:31:18;;;;;;;12.20;7.28;;;4.80;98.00;;;;;;5104834;27;20406;-71
2023/12/14 01:33:45;;;;;;;13.83;7.13;;;4.80;98.10;;;;;;5106845;28;20427;-71
2023/12/14 01:36:11;;;;;;;12.53;6.70;;;4.80;98.00;;;;;;5083360;28;20498;-71
2023/12/14 01:38:37;;;;;;;13.27;7.37;;;4.80;98.00;;;;;;5089837;28;20413;-71
2023/12/14 01:41:03;;;;;;;14.57;7.30;;;4.80;98.00;;;;;;5091273;28;20403;-70
2023/12/14 01:43:29;;;;;;;14.05;7.72;;;4.80;98.00;;;;;;5106311;28;20917;-71
2023/12/14 01:45:54;;;;;;;12.98;7.30;;;4.80;97.90;;;;;;5103367;28;20404;-71
2023/12/14 01:48:20;;;;;;;12.82;7.15;;;4.80;97.90;;;;;;5089046;28;20472;-71
2023/12/14 01:50:46;;;;;;;15.83;7.30;;;4.80;97.80;;;;;;5103545;28;20408;-71
2023/12/14 01:53:11;;;;;;;15.45;6.93;;;4.80;98.10;;;;;;5095806;28;20402;-71
2023/12/14 01:55:37;;;;;;;10.93;6.70;;;4.80;97.90;;;;;;5101893;28;20479;-71
2023/12/14 01:58:03;;;;;;;12.23;6.80;;;4.80;97.90;;;;;;5105969;28;20397;-71
2023/12/14 02:00:56;;;;;;;12.05;7.03;;;4.80;97.90;;;;;;5101117;28;20888;-70
2023/12/14 02:03:21;;;;;;;14.32;7.20;;;4.90;97.90;;;;;;5073374;28;20417;-70
2023/12/14 02:05:47;;;;;;;13.02;6.82;;;4.80;97.80;;;;;;5097328;28;20484;-70
2023/12/14 02:08:13;;;;;;;15.15;6.93;;;4.80;97.90;;;;;;5093551;28;20940;-70
2023/12/14 02:10:39;;;;;;;12.73;6.60;;;4.80;97.80;;;;;;5108136;28;20831;-71
2023/12/14 02:13:04;;;;;;;15.05;6.80;;;4.90;97.80;;;;;;5107107;28;20393;-70
2023/12/14 02:15:30;;;;;;;13.43;7.20;;;4.90;97.80;;;;;;5107902;28;20420;-70
2023/12/14 02:17:56;;;;;;;14.55;7.10;;;4.80;97.70;;;;;;5106387;28;20428;-71
2023/12/14 02:20:22;;;;;;;13.90;6.60;;;4.90;97.80;;;;;;5100508;28;20406;-71
2023/12/14 02:22:56;;;;;;;15.13;7.25;;;4.90;97.70;;;;;;5100981;28;20465;-71
2023/12/14 02:25:23;;;;;;;13.82;6.68;;;4.90;97.80;;;;;;5096454;28;20768;-71
2023/12/14 02:27:51;;;;;;;13.38;6.63;;;4.90;97.70;;;;;;5104611;28;20452;-70
2023/12/14 02:30:17;;;;;;;15.18;6.97;;;4.90;97.70;;;;;;5089559;28;20412;-70
2023/12/14 02:32:43;;;;;;;14.27;6.88;;;4.90;97.80;;;;;;5104479;28;20967;-71
2023/12/14 02:35:09;;;;;;;13.05;7.25;;;4.90;97.70;;;;;;5107753;28;20415;-71
2023/12/14 02:37:40;;;;;;;12.80;7.00;;;4.90;97.40;;;;;;5104216;28;20422;-70
2023/12/14 02:40:07;;;;;;;12.23;6.73;;;4.90;97.20;;;;;;5105161;28;20404;-71
2023/12/14 02:42:33;;;;;;;14.82;6.78;;;4.80;97.40;;;;;;5101497;28;20406;-71
2023/12/14 02:44:59;;;;;;;15.43;6.68;;;4.80;97.40;;;;;;5105023;28;20763;-70
2023/12/14 02:47:24;;;;;;;13.95;6.55;;;4.80;97.40;;;;;;5101831;28;20947;-71
2023/12/14 02:49:50;;;;;;;12.75;7.00;;;4.90;97.40;;;;;;5078547;28;20988;-71
2023/12/14 02:52:15;;;;;;;12.80;6.53;;;4.80;97.50;;;;;;5100257;28;20823;-70
2023/12/14 02:54:41;;;;;;;13.83;7.10;;;4.90;97.40;;;;;;5104381;28;20408;-71
2023/12/14 02:57:07;;;;;;;14.45;6.70;;;4.90;97.40;;;;;;5098648;28;20437;-71
2023/12/14 02:59:32;;;;;;;13.77;6.87;;;4.80;97.30;;;;;;5096850;28;20412;-71
2023/12/14 03:01:59;;;;;;;11.03;6.83;;;4.90;97.40;;;;;;5091900;28;20432;-71
2023/12/14 03:04:25;;;;;;;14.52;7.50;;;4.90;97.40;;;;;;5106833;28;20759;-71
2023/12/14 03:06:50;;;;;;;16.67;8.50;;;4.90;97.40;;;;;;5107504;28;20404;-71
2023/12/14 03:09:16;;;;;;;18.20;9.97;;;4.90;97.50;;;;;;5106741;28;20451;-71
2023/12/14 03:11:42;;;;;;;19.65;10.02;;;4.90;97.60;;;;;;5102842;28;20479;-71
2023/12/14 03:14:07;;;;;;;20.73;10.40;;;4.90;97.70;;;;;;5088246;28;20816;-71
2023/12/14 03:16:35;;;;;;;19.98;10.57;;;4.90;97.80;;;;;;5086789;28;20402;-71
2023/12/14 03:19:01;;;;;;;17.13;9.75;;;4.90;97.80;;;;;;5088111;28;20409;-71
2023/12/14 03:21:26;;;;;;;19.23;9.77;;;4.80;97.80;;;;;;5103648;28;20409;-71
2023/12/14 03:23:52;;;;;;;19.40;10.73;;;4.90;97.90;;;;;;5107545;28;20415;-71
2023/12/14 03:26:18;;;;;;;16.85;9.77;;;4.80;97.90;;;;;;5090917;28;20625;-71
2023/12/14 03:28:43;;;;;;;19.40;10.77;;;4.80;98.00;;;;;;5084567;28;20441;-70
2023/12/14 03:31:13;;;;;;;18.00;10.33;;;4.80;98.10;;;;;;5086333;28;20426;-71
2023/12/14 03:33:39;;;;;;;18.40;10.48;;;4.80;98.10;;;;;;5090094;28;20488;-71
2023/12/14 03:36:05;;;;;;;19.38;10.43;;;4.80;98.10;;;;;;5094494;28;20404;-71
2023/12/14 03:38:31;;;;;;;17.23;9.90;;;4.80;98.20;;;;;;5093004;28;20404;-71
2023/12/14 03:40:57;;;;;;;19.33;10.00;;;4.80;98.20;;;;;;5072709;28;20737;-70
2023/12/14 03:43:23;;;;;;;17.95;9.98;;;4.80;98.20;;;;;;5090421;28;20416;-71
2023/12/14 03:45:48;;;;;;;19.00;10.25;;;4.80;98.20;;;;;;5089560;28;20808;-71
2023/12/14 03:48:14;;;;;;;18.40;10.27;;;4.80;98.30;;;;;;5082519;28;20513;-71
2023/12/14 03:50:40;;;;;;;15.98;9.20;;;4.80;98.10;;;;;;5086186;28;20584;-71
2023/12/14 03:53:06;;;;;;;17.90;10.10;;;4.80;98.20;;;;;;5087221;28;20406;-71
2023/12/14 03:55:32;;;;;;;18.80;9.45;;;4.80;98.30;;;;;;5087660;28;20437;-71
2023/12/14 03:57:58;;;;;;;18.02;9.55;;;4.80;98.20;;;;;;5100551;28;20423;-71
2023/12/14 04:00:24;;;;;;;17.38;9.25;;;4.80;98.20;;;;;;5107566;28;20897;-71
2023/12/14 04:02:49;;;;;;;18.95;10.18;;;4.80;98.10;;;;;;5105107;28;20465;-71
2023/12/14 04:05:15;;;;;;;22.97;9.97;;;4.80;98.20;;;;;;5088874;28;20402;-71
2023/12/14 04:07:41;;;;;;;16.35;9.27;;;4.80;98.20;;;;;;5087394;28;20437;-71
2023/12/14 04:10:12;;;;;;;17.67;9.55;;;4.80;98.20;;;;;;5099139;28;20810;-71
2023/12/14 04:12:39;;;;;;;17.27;9.83;;;4.80;98.10;;;;;;5097759;28;20413;-71
2023/12/14 04:15:06;;;;;;;16.95;10.05;;;4.80;98.10;;;;;;5107585;28;20396;-71
2023/12/14 04:17:32;;;;;;;19.23;10.48;;;4.80;98.30;;;;;;5097857;28;20500;-71
2023/12/14 04:19:58;;;;;;;17.75;10.18;;;4.80;98.30;;;;;;5107118;28;20449;-71
2023/12/14 04:22:24;;;;;;;18.45;9.98;;;4.80;98.30;;;;;;5096250;28;20408;-71
2023/12/14 04:24:51;;;;;;;17.77;9.93;;;4.80;98.30;;;;;;5098913;28;20408;-71
2023/12/14 04:27:17;;;;;;;19.58;9.80;;;4.80;98.40;;;;;;5107476;28;20909;-71
2023/12/14 04:29:43;;;;;;;20.92;11.23;;;4.80;98.40;;;;;;5098487;28;20482;-71
2023/12/14 04:32:09;;;;;;;19.27;10.30;;;4.80;98.50;;;;;;5094281;28;20408;-70
2023/12/14 04:34:35;;;;;;;18.48;10.05;;;4.80;98.60;;;;;;5109554;28;20466;-71
2023/12/14 04:37:00;;;;;;;21.33;10.30;;;4.80;98.60;;;;;;5107975;28;20396;-71
2023/12/14 04:39:26;;;;;;;17.67;10.03;;;4.80;98.60;;;;;;5091578;28;20460;-71
2023/12/14 04:41:52;;;;;;;20.33;10.60;;;4.80;98.60;;;;;;5108070;27;20782;-71
2023/12/14 04:44:18;;;;;;;18.33;10.55;;;4.80;98.70;;;;;;5108765;28;20408;-71
2023/12/14 04:46:44;;;;;;;20.57;10.57;;;4.80;98.70;;;;;;5096002;28;20400;-71
2023/12/14 04:49:10;;;;;;;18.50;10.10;;;4.80;98.70;;;;;;5107920;28;20778;-71
2023/12/14 04:51:36;;;;;;;20.95;10.43;;;4.80;98.70;;;;;;5085933;28;20417;-71
2023/12/14 04:54:02;;;;;;;19.73;10.82;;;4.80;98.80;;;;;;5101202;28;20491;-71
2023/12/14 04:56:28;;;;;;;19.87;10.47;;;4.80;98.60;;;;;;5105383;28;20404;-71
2023/12/14 04:58:54;;;;;;;19.47;10.47;;;4.80;98.60;;;;;;5108634;28;20412;-71
2023/12/14 05:01:19;;;;;;;20.58;11.07;;;4.80;98.70;;;;;;5106987;28;20893;-71
2023/12/14 05:03:45;;;;;;;18.87;11.10;;;4.80;98.70;;;;;;5098502;28;20421;-71
2023/12/14 05:06:10;;;;;;;23.90;10.67;;;4.80;98.70;;;;;;5105632;28;20402;-71
2023/12/14 05:08:36;;;;;;;19.02;10.50;;;4.80;98.70;;;;;;5099209;28;20432;-71
2023/12/14 05:11:03;;;;;;;23.83;10.63;;;4.80;98.80;;;;;;5107068;28;20523;-71
2023/12/14 05:13:28;;;;;;;30.20;17.33;;;4.80;98.80;;;;;;5090273;28;20592;-71
2023/12/14 05:15:54;;;;;;;24.13;13.82;;;4.80;98.80;;;;;;5105087;28;21167;-71
2023/12/14 05:18:20;;;;;;;26.23;13.67;;;4.80;98.80;;;;;;5097710;28;20409;-71
2023/12/14 05:20:45;;;;;;;23.50;13.20;;;4.80;98.90;;;;;;5103095;28;20399;-71
2023/12/14 05:23:12;;;;;;;24.80;14.23;;;4.80;99.00;;;;;;5093292;28;20412;-71
2023/12/14 05:25:38;;;;;;;21.45;11.77;;;4.80;99.00;;;;;;5095360;28;20604;-71
2023/12/14 05:28:04;;;;;;;20.27;11.90;;;4.80;99.00;;;;;;5096648;28;20428;-71
2023/12/14 05:30:29;;;;;;;22.60;11.35;;;4.80;99.00;;;;;;5096161;28;20961;-71
2023/12/14 05:32:55;;;;;;;20.80;11.20;;;4.80;99.00;;;;;;5096266;28;20444;-71
2023/12/14 05:35:21;;;;;;;20.83;11.50;;;4.80;98.90;;;;;;5094759;28;20406;-71
2023/12/14 05:37:47;;;;;;;23.55;12.23;;;4.80;98.90;;;;;;5096605;28;20793;-71
2023/12/14 05:40:12;;;;;;;22.90;11.77;;;4.80;99.00;;;;;;5094503;28;20406;-71
2023/12/14 05:42:38;;;;;;;23.23;12.43;;;4.80;98.90;;;;;;5092912;28;20501;-71
2023/12/14 05:45:05;;;;;;;23.70;13.07;;;4.80;98.90;;;;;;5092856;28;20463;-71
2023/12/14 05:47:32;;;;;;;23.50;12.00;;;4.80;99.00;;;;;;5095506;28;20489;-71
2023/12/14 05:49:59;;;;;;;24.25;12.30;;;4.80;99.00;;;;;;5089384;28;20402;-71
2023/12/14 05:52:24;;;;;;;23.90;13.02;;;4.80;98.90;;;;;;5094371;28;20404;-71
2023/12/14 05:54:50;;;;;;;22.45;12.23;;;4.80;99.00;;;;;;5088752;28;20412;-71
2023/12/14 05:57:16;;;;;;;22.20;12.35;;;4.80;98.90;;;;;;5087964;28;20402;-71
2023/12/14 05:59:41;;;;;;;23.97;12.53;;;4.80;98.90;;;;;;5100763;28;20418;-71
2023/12/14 06:02:07;;;;;;;22.08;11.77;;;4.80;98.90;;;;;;5104860;28;20410;-71
2023/12/14 06:04:33;;;;;;;24.35;12.45;;;4.80;98.90;;;;;;5104027;28;20495;-71
2023/12/14 06:06:58;;;;;;;23.00;12.13;;;4.80;99.00;;;;;;5107358;28;20400;-71
2023/12/14 06:09:31;;;;;;;22.50;11.73;;;4.80;99.00;;;;;;5093098;28;20867;-71
2023/12/14 06:11:57;;;;;;;24.45;12.73;;;4.80;99.00;;;;;;5106521;28;20408;-71
2023/12/14 06:14:23;;;;;;;23.08;12.15;;;4.80;99.00;;;;;;5104860;28;20432;-71
2023/12/14 06:16:48;;;;;;;21.63;11.83;;;4.80;99.00;;;;;;5105973;28;20408;-71
2023/12/14 06:19:14;;;;;;;22.67;12.15;;;4.80;99.00;;;;;;5092190;28;20432;-71
2023/12/14 06:21:40;;;;;;;22.77;12.87;;;4.80;99.00;;;;;;5106429;28;20404;-73
2023/12/14 06:24:06;;;;;;;30.40;15.82;;;4.80;99.10;;;;;;5104129;28;20396;-73
2023/12/14 06:26:32;;;;;;;26.65;14.60;;;4.80;99.10;;;;;;5105978;28;20407;-73
2023/12/14 06:28:57;;;;;;;30.97;14.57;;;4.80;99.10;;;;;;5100010;28;21030;-73
2023/12/14 06:31:23;;;;;;;23.70;13.50;;;4.80;99.10;;;;;;5097163;28;20447;-71
2023/12/14 06:33:49;;;;;;;26.65;14.10;;;4.80;99.20;;;;;;5102744;28;20467;-72
2023/12/14 06:36:18;;;;;;;26.80;13.60;;;4.80;99.20;;;;;;5096109;28;20455;-69
2023/12/14 06:38:44;;;;;;;24.52;13.40;;;4.80;99.20;;;;;;5083612;28;20493;-69
2023/12/14 06:41:21;;;;;;;21.30;12.13;;;4.80;99.50;;;;;;5082246;28;20421;-71
2023/12/14 06:43:46;;;;;;;24.17;12.50;;;4.80;99.20;;;;;;5088007;28;20775;-71
2023/12/14 06:46:15;;;;;;;23.45;13.05;;;4.80;99.20;;;;;;5103831;28;20397;-71
2023/12/14 06:48:41;;;;;;;21.92;12.88;;;4.80;99.20;;;;;;5100659;28;20463;-71
2023/12/14 06:51:07;;;;;;;23.73;12.93;;;4.80;99.20;;;;;;5102692;28;20440;-72
2023/12/14 06:53:32;;;;;;;20.40;12.30;;;4.80;99.10;;;;;;5100876;28;20408;-71
2023/12/14 06:55:58;;;;;;;24.13;12.95;;;4.80;99.20;;;;;;5093455;28;20402;-72
2023/12/14 06:58:23;;;;;;;25.48;12.93;;;4.80;99.20;;;;;;5107609;28;20469;-72
2023/12/14 07:00:49;;;;;;;23.53;13.13;;;4.80;99.20;;;;;;5108386;28;20740;-72
2023/12/14 07:03:16;;;;;;;21.80;12.30;;;4.80;99.20;;;;;;5108437;28;20431;-72
2023/12/14 07:05:41;;;;;;;23.63;12.85;;;4.80;99.20;;;;;;5107447;28;20431;-72
2023/12/14 07:08:07;;;;;;;22.57;12.70;;;4.80;99.20;;;;;;5099991;28;20837;-72
2023/12/14 07:10:33;;;;;;;21.77;12.45;;;4.80;99.20;;;;;;5099390;28;20483;-72
2023/12/14 07:12:59;;;;;;;23.80;13.13;;;4.80;99.20;;;;;;5095466;28;20403;-72
2023/12/14 07:15:25;;;;;;;21.58;11.93;;;4.80;99.20;;;;;;5106550;28;20396;-72
2023/12/14 07:17:51;;;;;;;21.30;12.43;;;4.70;99.10;;;;;;5099329;28;20410;-72
2023/12/14 07:20:16;;;;;;;23.67;13.00;;;4.80;99.10;;;;;;5099369;28;20396;-72
2023/12/14 07:22:42;;;;;;;25.43;12.40;;;4.80;99.20;;;;;;5106101;28;20404;-72
2023/12/14 07:25:08;;;;;;;23.63;13.25;;;4.80;99.10;;;;;;5106653;28;20393;-72
2023/12/14 07:27:33;;;;;;;22.52;12.73;;;4.80;99.10;;;;;;5105912;28;20420;-72
2023/12/14 07:29:59;;;;;;;23.87;13.20;;;4.80;99.30;;;;;;5106200;28;20412;-72
2023/12/14 07:32:25;;;;;;;24.70;12.98;;;4.80;99.10;;;;;;5092616;28;20405;-72
2023/12/14 07:34:50;;;;;;;24.55;13.15;;;4.80;99.30;;;;;;5104487;28;20754;-72
2023/12/14 07:37:16;;;;;;;23.13;12.60;;;4.70;99.00;;;;;;5102591;28;20538;-72
2023/12/14 07:39:42;;;;;;;24.75;13.38;;;4.80;98.90;;;;;;5104317;28;20786;-72
2023/12/14 07:42:07;;;;;;;24.52;12.50;;;4.70;98.90;;;;;;5102958;28;20408;-72
2023/12/14 07:44:35;;;;;;;24.50;12.63;;;4.80;98.90;;;;;;5104014;28;20471;-72
2023/12/14 07:47:01;;;;;;;22.55;12.63;;;4.70;98.80;;;;;;5104821;28;20392;-72
2023/12/14 07:49:26;;;;;;;25.50;13.35;;;4.70;98.80;;;;;;5104742;28;20859;-72
2023/12/14 07:51:52;;;;;;;27.07;13.40;;;4.70;98.90;;;;;;5107454;28;20400;-72
2023/12/14 07:54:18;;;;;;;25.15;13.02;;;4.80;98.90;;;;;;5107201;28;20396;-72
2023/12/14 07:56:44;;;;;;;22.52;12.85;;;4.70;98.90;;;;;;5091244;28;20398;-72
2023/12/14 07:59:10;;;;;;;24.58;13.00;;;4.70;98.80;;;;;;5090256;28;20410;-72
2023/12/14 08:01:36;;;;;;;23.67;13.00;;;4.70;98.70;;;;;;5090211;28;20413;-72
2023/12/14 08:04:02;;;;;;;25.25;12.93;;;4.80;98.80;;;;;;5090137;28;20406;-72
2023/12/14 08:06:28;;;;;;;24.70;12.90;;;4.70;98.80;;;;;;5091850;28;20408;-72
2023/12/14 08:08:55;;;;;;;23.52;12.90;;;4.70;98.80;;;;;;5090307;28;20855;-73
2023/12/14 08:11:20;;;;;;;24.30;13.27;;;4.70;98.80;;;;;;5090105;28;20416;-72
2023/12/14 08:13:47;;;;;;;23.73;12.77;;;4.70;98.80;;;;;;5090197;28;20406;-72
2023/12/14 08:16:13;;;;;;;23.27;12.80;;;4.70;98.80;;;;;;5096880;28;20435;-72
2023/12/14 08:18:39;;;;;;;21.80;13.57;;;4.70;98.80;;;;;;5109819;28;20956;-72
2023/12/14 08:21:04;;;;;;;24.05;13.00;;;4.70;98.80;;;;;;5110220;28;20499;-72
2023/12/14 08:23:30;;;;;;;24.47;12.93;;;4.80;98.90;;;;;;5108826;28;20416;-72
2023/12/14 08:25:59;;;;;;;23.70;13.07;;;4.80;98.90;;;;;;5106594;28;20460;-72
2023/12/14 08:28:25;;;;;;;23.08;12.85;;;4.80;98.90;;;;;;5090809;28;20429;-72
2023/12/14 08:30:54;;;;;;;22.88;12.45;;;4.80;98.80;;;;;;5109251;28;20457;-72
2023/12/14 08:33:19;;;;;;;22.27;12.60;;;4.80;98.80;;;;;;5108020;28;20436;-72
2023/12/14 08:35:45;;;;;;;24.00;13.30;;;4.80;98.80;;;;;;5108827;28;20830;-72
2023/12/14 08:38:11;;;;;;;23.43;12.40;;;4.80;98.80;;;;;;5107887;28;20481;-72
2023/12/14 08:40:37;;;;;;;20.73;12.35;;;4.90;98.90;;;;;;5108520;28;20408;-72
2023/12/14 08:43:03;;;;;;;24.27;12.70;;;4.90;98.80;;;;;;5108126;28;20392;-72
2023/12/14 08:45:29;;;;;;;26.37;12.37;;;4.90;98.90;;;;;;5101540;28;20408;-72
2023/12/14 08:47:56;;;;;;;24.67;13.13;;;4.90;99.00;;;;;;5102428;28;20424;-72
2023/12/14 08:50:21;;;;;;;24.20;13.15;;;4.90;99.00;;;;;;5096461;28;20449;-72
2023/12/14 08:52:48;;;;;;;23.35;12.98;;;4.90;99.00;;;;;;5106773;28;20408;-72
2023/12/14 08:55:14;;;;;;;21.80;12.18;;;4.90;99.00;;;;;;5095193;28;20944;-73
2023/12/14 08:57:39;;;;;;;22.00;12.18;;;5.00;99.00;;;;;;5084427;28;20474;-73
2023/12/14 09:00:06;;;;;;;23.40;12.43;;;5.00;99.00;;;;;;5105800;28;20489;-73
2023/12/14 09:02:32;;;;;;;24.47;12.77;;;5.00;99.00;;;;;;5090182;28;20425;-73
2023/12/14 09:04:58;;;;;;;22.30;12.18;;;5.00;99.00;;;;;;5089256;28;20406;-73
2023/12/14 09:07:24;;;;;;;22.50;12.23;;;5.00;99.00;;;;;;5089005;28;20408;-73
2023/12/14 09:09:50;;;;;;;22.65;12.55;;;5.00;99.10;;;;;;5089506;28;20411;-73
2023/12/14 09:12:16;;;;;;;23.35;12.45;;;5.00;99.20;;;;;;5089106;28;20402;-73
2023/12/14 09:14:41;;;;;;;22.58;12.63;;;5.00;99.10;;;;;;5090755;28;20481;-73
2023/12/14 09:17:07;;;;;;;21.58;12.15;;;5.10;99.10;;;;;;5089894;28;20409;-73
2023/12/14 09:19:33;;;;;;;20.00;11.80;;;5.10;99.10;;;;;;5089467;28;20436;-73
2023/12/14 09:21:58;;;;;;;23.03;11.73;;;5.10;99.00;;;;;;5089370;28;20455;-73
2023/12/14 09:24:24;;;;;;;22.55;11.90;;;5.10;98.90;;;;;;5088681;28;20398;-73
2023/12/14 09:26:50;;;;;;;24.98;12.60;;;5.10;98.90;;;;;;5105755;28;20394;-73
2023/12/14 09:29:16;;;;;;;21.90;12.03;;;5.10;98.90;;;;;;5090227;28;20927;-73
2023/12/14 09:31:45;;;;;;;20.83;12.20;;;5.10;98.90;;;;;;5090748;28;20448;-73
2023/12/14 09:34:12;;;;;;;22.55;12.60;;;5.20;99.00;;;;;;5093396;28;20438;-73
2023/12/14 09:36:38;;;;;;;22.35;12.05;;;5.20;98.90;;;;;;5089709;28;20464;-73
2023/12/14 09:39:10;;;;;;;21.90;12.40;;;5.30;99.00;;;;;;5089696;28;20907;-73
2023/12/14 09:41:36;;;;;;;26.23;12.95;;;5.30;98.90;;;;;;5089804;28;20407;-73
2023/12/14 09:44:03;;;;;;;21.85;12.23;;;5.30;98.70;;;;;;5089580;28;20405;-73
2023/12/14 09:46:30;;;;;;;22.07;12.50;;;5.30;98.70;;;;;;5102133;28;20588;-73
2023/12/14 09:48:59;;;;;;;23.23;12.37;;;5.30;98.60;;;;;;5100727;28;20807;-73
2023/12/14 09:51:26;;;;;;;21.33;12.80;;;5.40;98.50;;;;;;5088694;28;20505;-73
2023/12/14 09:53:57;;;;;;;24.15;12.23;;;5.40;98.20;;;;;;5088835;28;20443;-73
2023/12/14 09:56:27;;;;;;;19.45;12.18;;;5.30;97.90;;;;;;5091321;28;20404;-73
2023/12/14 09:58:53;;;;;;;24.23;13.02;;;5.40;97.90;;;;;;5108250;28;20458;-73
2023/12/14 10:01:26;;;;;;;23.83;12.57;;;5.40;97.90;;;;;;5108540;28;20894;-73
2023/12/14 10:04:24;;;;;;;22.57;12.67;;;5.40;97.90;;;;;;5096926;28;20418;-73
2023/12/14 10:06:50;;;;;;;23.25;12.85;;;5.40;97.90;;;;;;5026336;28;20416;-73
2023/12/14 10:09:22;;;;;;;23.98;12.60;;;5.40;97.90;;;;;;5107868;28;20566;-73
2023/12/14 10:12:01;;;;;;;22.42;12.68;;;5.40;97.90;;;;;;5108249;28;20396;-73
2023/12/14 10:14:26;;;;;;;25.23;12.57;;;5.50;97.90;;;;;;5106546;28;20404;-73
2023/12/14 10:16:52;;;;;;;27.00;13.60;;;5.40;97.80;;;;;;5108045;28;20400;-73
2023/12/14 10:19:19;;;;;;;25.60;13.20;;;5.40;97.70;;;;;;5108360;27;20819;-73
2023/12/14 10:21:47;;;;;;;24.70;13.32;;;5.40;97.50;;;;;;5107136;28;20392;-73
2023/12/14 10:24:13;;;;;;;23.33;12.35;;;5.40;97.60;;;;;;5107515;28;20461;-73
2023/12/14 10:26:38;;;;;;;24.92;13.20;;;5.40;97.80;;;;;;5108606;28;20411;-73
2023/12/14 10:29:04;;;;;;;22.25;12.50;;;5.40;97.90;;;;;;5101002;28;20788;-73
2023/12/14 10:31:31;;;;;;;23.90;13.77;;;5.40;97.80;;;;;;5098769;28;20932;-73
2023/12/14 10:33:57;;;;;;;23.30;12.40;;;5.40;97.80;;;;;;5100777;28;20482;-73
2023/12/14 10:36:27;;;;;;;23.77;13.07;;;5.50;97.90;;;;;;5087973;28;20559;-73
2023/12/14 10:38:54;;;;;;;24.20;13.02;;;5.50;97.90;;;;;;5105110;28;20405;-73
2023/12/14 10:41:23;;;;;;;25.80;13.60;;;5.50;97.90;;;;;;5106545;28;20392;-73
2023/12/14 10:43:53;;;;;;;21.40;12.70;;;5.50;97.70;;;;;;5093509;28;20401;-73
2023/12/14 10:46:20;;;;;;;28.67;13.70;;;5.50;97.70;;;;;;5087965;28;20405;-73
2023/12/14 10:48:47;;;;;;;31.77;15.55;;;5.50;97.80;;;;;;5107238;28;20424;-73
2023/12/14 10:51:14;;;;;;;20.95;12.75;;;5.50;97.80;;;;;;5105673;28;20828;-73
2023/12/14 10:53:43;;;;;;;23.20;12.90;;;5.50;97.80;;;;;;5105755;28;20969;-73
2023/12/14 10:56:11;;;;;;;22.95;12.55;;;5.50;97.70;;;;;;5076536;28;20828;-73
2023/12/14 10:58:56;;;;;;;20.77;12.63;;;5.50;97.60;;;;;;5108659;28;20412;-73
2023/12/14 11:01:27;;;;;;;24.05;13.18;;;5.50;97.50;;;;;;5089812;28;20413;-73
2023/12/14 11:03:58;;;;;;;22.97;13.43;;;5.50;97.50;;;;;;5099456;28;20762;-73
2023/12/14 11:06:37;;;;;;;24.45;13.63;;;5.50;97.50;;;;;;5104708;28;20408;-73
2023/12/14 11:09:10;;;;;;;22.77;12.85;;;5.50;97.60;;;;;;5105358;28;20459;-73
2023/12/14 11:11:53;;;;;;;25.23;13.00;;;5.50;97.50;;;;;;5083295;28;20966;-73
2023/12/14 11:14:20;;;;;;;23.33;12.25;;;5.50;97.50;;;;;;5104822;28;20577;-73
2023/12/14 11:16:48;;;;;;;22.58;12.57;;;5.50;97.40;;;;;;5106917;28;20738;-73
2023/12/14 11:19:24;;;;;;;24.08;12.82;;;5.50;97.50;;;;;;5104364;28;20925;-73
2023/12/14 11:22:09;;;;;;;22.20;12.67;;;5.50;97.40;;;;;;5105829;28;20408;-73
2023/12/14 11:24:35;;;;;;;24.33;13.02;;;5.50;97.60;;;;;;5084272;28;20435;-73
2023/12/14 11:27:06;;;;;;;23.65;12.70;;;5.50;97.60;;;;;;5105221;28;20890;-73
2023/12/14 11:29:31;;;;;;;25.40;13.18;;;5.50;97.60;;;;;;5105325;28;20439;-74
2023/12/14 11:31:58;;;;;;;22.73;12.82;;;5.50;97.50;;;;;;5103642;28;20758;-73
2023/12/14 11:34:27;;;;;;;25.42;13.50;;;5.60;97.50;;;;;;5105724;28;20754;-73
2023/12/14 11:36:56;;;;;;;23.42;12.80;;;5.50;97.50;;;;;;5103987;28;20409;-73
2023/12/14 11:39:22;;;;;;;23.58;13.13;;;5.60;97.60;;;;;;5104937;28;20412;-73
2023/12/14 11:42:00;;;;;;;23.37;13.03;;;5.60;97.60;;;;;;5102431;28;20409;-73
2023/12/14 11:44:26;;;;;;;22.15;13.45;;;5.60;97.70;;;;;;5104841;28;20439;-73
2023/12/14 11:46:52;;;;;;;23.30;13.87;;;5.60;97.60;;;;;;5103015;28;20431;-74
2023/12/14 11:49:17;;;;;;;25.52;13.25;;;5.60;97.60;;;;;;5103881;28;20427;-73
2023/12/14 11:51:46;;;;;;;25.80;13.40;;;5.60;97.50;;;;;;5073648;28;20461;-74
2023/12/14 11:54:12;;;;;;;24.00;13.20;;;5.60;97.60;;;;;;5094392;28;20417;-73
2023/12/14 11:56:38;;;;;;;22.97;13.47;;;5.60;97.70;;;;;;5073699;28;20425;-73
2023/12/14 11:59:03;;;;;;;24.17;13.53;;;5.60;97.90;;;;;;5099054;28;20416;-74
2023/12/14 12:01:31;;;;;;;23.00;13.10;;;5.70;97.80;;;;;;5092130;28;20400;-73
2023/12/14 12:04:08;;;;;;;21.40;12.82;;;5.70;97.90;;;;;;5094288;28;20875;-73
2023/12/14 12:06:33;;;;;;;21.73;13.15;;;5.70;98.00;;;;;;5094752;28;20396;-73
2023/12/14 12:08:59;;;;;;;23.87;12.87;;;5.70;97.80;;;;;;5104892;28;20952;-73
2023/12/14 12:11:25;;;;;;;26.15;14.18;;;5.70;97.60;;;;;;5093507;28;21483;-74
2023/12/14 12:13:56;;;;;;;23.77;12.48;;;5.70;97.50;;;;;;5105741;28;20825;-74
2023/12/14 12:16:22;;;;;;;26.60;13.20;;;5.70;97.40;;;;;;5105771;28;20404;-74
2023/12/14 12:18:48;;;;;;;30.48;14.27;;;5.70;97.20;;;;;;5092280;28;20438;-74
2023/12/14 12:21:14;;;;;;;25.92;13.95;;;5.70;97.10;;;;;;5098112;28;20434;-74
2023/12/14 12:23:41;;;;;;;26.98;13.80;;;5.70;97.10;;;;;;5101443;28;20397;-73
2023/12/14 12:26:07;;;;;;;25.27;13.40;;;5.80;97.30;;;;;;5106370;28;20538;-73
2023/12/14 12:28:33;;;;;;;26.20;14.45;;;5.80;97.30;;;;;;5104929;28;21041;-74
2023/12/14 12:30:59;;;;;;;26.50;14.68;;;5.80;97.50;;;;;;5098135;28;20402;-73
2023/12/14 12:33:25;;;;;;;27.03;16.10;;;5.80;97.20;;;;;;5100229;28;20502;-73
2023/12/14 12:35:52;;;;;;;26.33;13.47;;;5.80;97.20;;;;;;5108251;28;20757;-73
2023/12/14 12:38:18;;;;;;;24.70;14.30;;;5.90;97.40;;;;;;5108967;28;20793;-73